ROMMA est une association bénévole à but non lucratif. Votre soutien est indispensable : ADHERER à ROMMA ou FAIRE un DON

Saint-Léger-les-Mélèzes - (05, Hautes-Alpes)

Champsaur (1245 m)   Longitude: 6° 11' 42" E    Latitude: 44° 38' 38" N Station partenaire n°51
 

Détail journalier du     <<     >>

Température Precipitation Humidité Vent Dir Rafale Dir. rafale Ensol.
Heure (°C) (mm) (%) (km/h) (km/h) (min)
01:00 14.90752S8S0
02:00 14.70761SSO5SSO0
03:00 14.50762SSO8SSO0
04:00 13.60803SSO8SSO0
05:00 13.40802SSO6SSO0
06:00 13.60791SSO6SSO0
07:00 13.70793S8SSO0
08:00 13.80792S6S0
09:00 14.90781S5S10
10:00 18.706403S50
11:00 19.106205NNO10
12:00 20.80562ONO11NO0
13:00 22.20523ONO11ONO20
14:00 24.40463ONO13NO60
15:00 25.10433S19S40
16:00 24.90444OSO15OSO60
17:00 25.00432OSO11S60
18:00 23.20492SO10O0
19:00 21.60542S13OSO0
20:00 20.10591SSO8SSE0
21:00 19.20621SSO8S0
22:00 17.70672SSE6SSE0
23:00 17.30691S6S0
minuit 16.307205S0

Graphique du 14-09-2019

 

Serveur OMMA